createdAt,value
2023-11-27T00:12:37.225Z,23.12
2023-11-27T00:15:04.600Z,23.19
2023-11-27T00:17:34.335Z,23.31
2023-11-27T15:59:41.459Z,1.44
2023-11-27T16:02:09.590Z,1.01
2023-11-27T16:04:39.610Z,0.74
2023-11-27T16:07:07.436Z,0.47
2023-11-27T16:09:35.352Z,0.21
2023-11-27T16:12:04.562Z,-0.01
2023-11-27T16:14:32.429Z,-0.22
2023-11-27T16:17:00.288Z,-0.38
2023-11-27T16:19:29.333Z,-0.49
2023-11-27T16:21:57.068Z,-0.56
2023-11-27T16:24:25.022Z,-0.61
2023-11-27T16:26:54.110Z,-0.67
2023-11-27T16:29:21.958Z,-0.73
2023-11-27T16:31:49.822Z,-0.81
2023-11-27T16:34:18.840Z,-0.89
2023-11-27T16:36:46.609Z,-0.97
2023-11-27T16:39:15.041Z,-1.06
2023-11-27T16:41:44.176Z,-1.15
2023-11-27T16:44:12.072Z,-1.21
2023-11-27T16:46:39.988Z,-1.23
2023-11-27T16:49:09.033Z,-1.23
2023-11-27T16:51:36.869Z,-1.22
2023-11-27T16:54:04.525Z,-1.20
2023-11-27T16:56:33.737Z,-1.18
2023-11-27T16:59:01.892Z,-1.18
2023-11-27T17:01:29.782Z,-1.19
2023-11-27T17:03:58.993Z,-1.18
2023-11-27T17:06:26.938Z,-1.17
2023-11-27T17:08:54.691Z,-1.17
2023-11-27T17:11:23.978Z,-1.17
2023-11-27T17:13:51.697Z,-1.15
2023-11-27T17:16:19.677Z,-1.14
2023-11-27T17:18:49.045Z,-1.11
2023-11-27T17:21:17.289Z,-1.06
2023-11-27T17:23:45.171Z,-1.00
2023-11-27T17:26:14.565Z,-0.94
2023-11-27T17:28:42.546Z,-0.89
2023-11-27T17:31:12.821Z,-0.85
2023-11-27T17:33:40.624Z,-0.83
2023-11-27T17:36:08.451Z,-0.83
2023-11-27T17:38:37.685Z,-0.84
2023-11-27T17:41:05.548Z,-0.85
2023-11-27T17:43:33.653Z,-0.87
2023-11-27T17:46:02.741Z,-0.90
2023-11-27T17:48:30.694Z,-0.90
2023-11-27T17:50:58.563Z,-0.89
2023-11-27T17:53:27.649Z,-0.86
2023-11-27T17:55:58.029Z,-0.82
2023-11-27T17:58:27.718Z,-0.80
2023-11-27T18:00:55.484Z,-0.78
2023-11-27T18:03:25.908Z,-0.76
2023-11-27T18:05:53.739Z,-0.76
2023-11-27T18:08:23.850Z,-0.79
2023-11-27T18:10:51.689Z,-0.81
2023-11-27T18:13:19.421Z,-0.84
2023-11-27T18:15:48.478Z,-0.87
2023-11-27T18:18:16.295Z,-0.87
2023-11-27T18:20:44.007Z,-0.86
2023-11-27T18:23:13.100Z,-0.83
2023-11-27T18:25:41.290Z,-0.83
2023-11-27T18:28:09.071Z,-0.82
2023-11-27T18:30:38.136Z,-0.82
2023-11-27T18:33:05.905Z,-0.83
2023-11-27T18:35:33.675Z,-0.85
2023-11-27T18:38:02.858Z,-0.87
2023-11-27T18:40:30.761Z,-0.91
2023-11-27T18:42:58.604Z,-0.93
2023-11-27T18:45:27.696Z,-0.97
2023-11-27T18:47:55.432Z,-0.99
2023-11-27T18:50:23.397Z,-0.98
2023-11-27T18:52:52.479Z,-0.96
2023-11-27T18:55:20.540Z,-0.93
2023-11-27T18:57:51.356Z,-0.92
2023-11-27T19:00:21.534Z,-0.93
2023-11-27T19:02:49.275Z,-0.94
2023-11-27T19:05:17.071Z,-0.97
2023-11-27T19:07:45.957Z,-1.00
2023-11-27T19:10:13.804Z,-1.04
2023-11-27T19:12:41.984Z,-1.10
2023-11-27T19:15:11.095Z,-1.15
2023-11-27T19:17:39.064Z,-1.18
2023-11-27T19:20:07.123Z,-1.18
2023-11-27T19:22:36.444Z,-1.16
2023-11-27T19:25:04.208Z,-1.13
2023-11-27T19:27:32.058Z,-1.11
2023-11-27T19:30:01.201Z,-1.08
2023-11-27T19:32:28.819Z,-1.05
2023-11-27T19:34:56.843Z,-1.01
2023-11-27T19:37:26.311Z,-0.98
2023-11-27T19:39:54.043Z,-0.97
2023-11-27T19:42:24.175Z,-0.96
2023-11-27T19:44:52.141Z,-0.93
2023-11-27T19:47:20.073Z,-0.88
2023-11-27T19:49:49.169Z,-0.82
2023-11-27T19:52:16.874Z,-0.76
2023-11-27T19:54:44.522Z,-0.72
2023-11-27T19:57:13.622Z,-0.71
2023-11-27T19:59:41.385Z,-0.70
2023-11-27T20:02:09.330Z,-0.69
2023-11-27T20:04:38.587Z,-0.67
2023-11-27T20:07:06.187Z,-0.65
2023-11-27T20:09:33.963Z,-0.64
2023-11-27T20:12:02.859Z,-0.62
2023-11-27T20:14:30.719Z,-0.58
2023-11-27T20:16:58.693Z,-0.52
2023-11-27T20:19:27.894Z,-0.47
2023-11-27T20:21:55.656Z,-0.43
2023-11-27T20:24:23.312Z,-0.41
2023-11-27T20:26:52.317Z,-0.40
2023-11-27T20:29:19.975Z,-0.41
2023-11-27T20:31:47.950Z,-0.42
2023-11-27T20:34:16.976Z,-0.46
2023-11-27T20:36:44.790Z,-0.47
2023-11-27T20:39:12.770Z,-0.46
2023-11-27T20:41:42.366Z,-0.44
2023-11-27T20:44:10.553Z,-0.41
2023-11-27T20:46:40.880Z,-0.40
2023-11-27T20:49:08.629Z,-0.38
2023-11-27T20:51:36.501Z,-0.38
2023-11-27T20:54:05.585Z,-0.37
2023-11-27T20:56:33.353Z,-0.39
2023-11-27T20:59:01.222Z,-0.40
2023-11-27T21:01:30.925Z,-0.40
2023-11-27T21:03:58.595Z,-0.37
2023-11-27T21:06:28.608Z,-0.35
2023-11-27T21:08:56.369Z,-0.32
2023-11-27T21:11:24.779Z,-0.29
2023-11-27T21:13:54.508Z,-0.28
2023-11-27T21:16:22.711Z,-0.29
2023-11-27T21:18:52.853Z,-0.31
2023-11-27T21:21:20.528Z,-0.33
2023-11-27T21:23:48.677Z,-0.33
2023-11-27T21:26:17.777Z,-0.32
2023-11-27T21:28:45.705Z,-0.31
2023-11-27T21:31:13.337Z,-0.29
2023-11-27T21:33:42.391Z,-0.28
2023-11-27T21:36:09.964Z,-0.29
2023-11-27T21:38:37.734Z,-0.31
2023-11-27T21:41:06.973Z,-0.32
2023-11-27T21:43:34.917Z,-0.34
2023-11-27T21:46:03.122Z,-0.34
2023-11-27T21:48:32.149Z,-0.32
2023-11-27T21:50:59.711Z,-0.30
2023-11-27T21:53:27.501Z,-0.27
2023-11-27T21:55:56.806Z,-0.27
2023-11-27T21:58:24.790Z,-0.28
2023-11-27T22:00:54.861Z,-0.29
2023-11-27T22:03:22.638Z,-0.31
2023-11-27T22:05:50.519Z,-0.34
2023-11-27T22:08:19.532Z,-0.35
2023-11-27T22:10:47.477Z,-0.35
2023-11-27T22:13:15.185Z,-0.33
2023-11-27T22:15:44.221Z,-0.33
2023-11-27T22:18:11.973Z,-0.34
2023-11-27T22:20:39.745Z,-0.35
2023-11-27T22:23:09.035Z,-0.37
2023-11-27T22:25:36.822Z,-0.40
2023-11-27T22:28:04.979Z,-0.42
2023-11-27T22:30:34.071Z,-0.44
2023-11-27T22:33:01.848Z,-0.43
2023-11-27T22:35:29.697Z,-0.41
2023-11-27T22:37:58.717Z,-0.40
2023-11-27T22:40:26.701Z,-0.40
2023-11-27T22:42:54.446Z,-0.40
2023-11-27T22:45:23.523Z,-0.42
2023-11-27T22:47:51.189Z,-0.44
2023-11-27T22:50:19.046Z,-0.46
2023-11-27T22:52:48.286Z,-0.46
2023-11-27T22:55:16.314Z,-0.45
2023-11-27T22:57:45.248Z,-0.43
2023-11-27T23:00:15.629Z,-0.42
2023-11-27T23:02:43.837Z,-0.41
2023-11-27T23:05:11.574Z,-0.41
2023-11-27T23:07:40.621Z,-0.42
2023-11-27T23:10:08.557Z,-0.44
2023-11-27T23:12:36.408Z,-0.45
2023-11-27T23:15:05.482Z,-0.45
2023-11-27T23:17:33.396Z,-0.45
2023-11-27T23:20:01.689Z,-0.43
2023-11-27T23:22:30.852Z,-0.41
2023-11-27T23:24:58.691Z,-0.40
2023-11-27T23:27:26.452Z,-0.39
2023-11-27T23:29:55.341Z,-0.41
2023-11-27T23:32:23.210Z,-0.42
2023-11-27T23:34:51.182Z,-0.44
2023-11-27T23:37:20.795Z,-0.45
2023-11-27T23:39:48.447Z,-0.43
2023-11-27T23:42:19.172Z,-0.41
2023-11-27T23:44:46.839Z,-0.40
2023-11-27T23:47:16.887Z,-0.40
2023-11-27T23:49:44.656Z,-0.40
2023-11-27T23:52:12.482Z,-0.42
2023-11-27T23:54:41.695Z,-0.44
2023-11-27T23:57:09.342Z,-0.44
2023-11-27T23:59:37.210Z,-0.42
